»·PEaware :: SWA48 KDAL-KFLL

SWA48 :: KDAL-KFLL

FLIGHT INFORMATION

Flight Status: Arrived
Operator:
Southwest Airlines
More flights by this operator :: More flights under this callsign
Pilot: Drew L. (13237)
Aircraft: BOEING 737-800
(B738)
More flights by this aircraft type
Origin: KDAL Dallas Love
United States
Destination: KFLL Ft Lauderdale-Hollywood Intl
United States
More flights between these airports :: More routes between these airports
Route: EMMTT4 ZALEA HRV Q105 BLVNS Y290 BAGGS JINGL6
File this flight plan on PilotEdge
Remarks: RMK / SIMBRIEF
Altitude:
(Current/Filed)
35,000ft
Speed:
(Current/Filed)
450kts
Departed: 10-Mar-19 11:11 PM
Arrived: 11-Mar-19 01:26 AM
Distance/Time
Traveled:
961nm/2:15
Distance/Time
To Go:
Arrived

Flight Plot

Page will automatically refresh every two minutes.

Flight plan parsing failed; only flown route is shown


Map Options




Map Legend


Flown Route
Filed Route
Departure Airport
Arrival Airport
Navaid (VOR, NDB)
Fix

Horizontal Profiles

Position Reports

Time Latitude Longitude Heading Altitude Ground
Speed
10-Mar-19 22:41 32.846315 -96.847479 246 488ft 0kts
10-Mar-19 22:42 32.846315 -96.847479 246 488ft 0kts
10-Mar-19 22:43 32.846315 -96.847479 246 488ft 0kts
10-Mar-19 22:44 32.846315 -96.847479 246 488ft 0kts
10-Mar-19 22:45 32.846315 -96.847479 246 488ft 0kts
10-Mar-19 22:46 32.846315 -96.847479 246 488ft 0kts
10-Mar-19 22:47 32.846315 -96.847479 246 488ft 0kts
10-Mar-19 22:48 32.846315 -96.847479 246 488ft 0kts
10-Mar-19 22:49 32.846315 -96.847479 246 488ft 0kts
10-Mar-19 22:50 32.846315 -96.847479 246 488ft 0kts
10-Mar-19 22:51 32.846315 -96.847479 246 488ft 0kts
10-Mar-19 22:52 32.846315 -96.847479 246 488ft 0kts
10-Mar-19 22:53 32.846315 -96.847479 246 488ft 0kts
10-Mar-19 22:54 32.846315 -96.847479 246 488ft 0kts
10-Mar-19 22:54 32.846315 -96.847479 246 488ft 0kts
10-Mar-19 22:56 32.846315 -96.847479 246 488ft 0kts
10-Mar-19 22:57 32.846315 -96.847479 246 488ft 0kts
10-Mar-19 22:57 32.846315 -96.847479 246 488ft 0kts
10-Mar-19 22:58 32.846316 -96.847478 246 488ft 0kts
10-Mar-19 23:00 32.846747 -96.847128 151 489ft 2kts
10-Mar-19 23:00 32.846852 -96.847232 134 489ft 0kts
10-Mar-19 23:01 32.846852 -96.847232 134 489ft 0kts
10-Mar-19 23:03 32.846766 -96.846460 315 489ft 16kts
10-Mar-19 23:03 32.849634 -96.850840 312 487ft 21kts
10-Mar-19 23:04 32.849772 -96.854231 193 481ft 24kts
10-Mar-19 23:05 32.849915 -96.859973 315 464ft 18kts
10-Mar-19 23:06 32.851545 -96.861848 310 458ft 0kts
10-Mar-19 23:07 32.851545 -96.861848 310 458ft 0kts
10-Mar-19 23:08 32.851545 -96.861848 310 458ft 0kts
10-Mar-19 23:09 32.850976 -96.863049 136 454ft 9kts
10-Mar-19 23:10 32.834200 -96.843776 134 681ft 173kts
10-Mar-19 23:11 32.807036 -96.798944 103 2645ft 169kts
10-Mar-19 23:12 32.792072 -96.735774 103 3955ft 234kts
10-Mar-19 23:13 32.772286 -96.651478 104 6176ft 283kts
10-Mar-19 23:14 32.750314 -96.558578 106 8972ft 300kts
10-Mar-19 23:15 32.726442 -96.458218 108 11124ft 337kts
10-Mar-19 23:16 32.700431 -96.348937 109 13954ft 353kts
10-Mar-19 23:17 32.689215 -96.229256 98 16551ft 378kts
10-Mar-19 23:18 32.680858 -96.101421 98 18975ft 397kts
10-Mar-19 23:19 32.671920 -95.968184 99 21193ft 416kts
10-Mar-19 23:20 32.662349 -95.828432 99 23236ft 434kts
10-Mar-19 23:21 32.652169 -95.682727 99 25109ft 452kts
10-Mar-19 23:22 32.641431 -95.531851 99 26862ft 468kts
10-Mar-19 23:23 32.630080 -95.375304 99 28498ft 484kts
10-Mar-19 23:24 32.618270 -95.213937 99 29980ft 498kts
10-Mar-19 23:25 32.605969 -95.048849 99 31403ft 510kts
10-Mar-19 23:26 32.593271 -94.881588 99 33105ft 510kts
10-Mar-19 23:27 32.571788 -94.716877 114 34672ft 498kts
10-Mar-19 23:28 32.524814 -94.561134 114 35201ft 512kts
10-Mar-19 23:29 32.479526 -94.401570 114 35214ft 511kts
10-Mar-19 23:30 32.434291 -94.242792 114 35214ft 510kts
10-Mar-19 23:31 32.388605 -94.083202 114 35208ft 510kts
10-Mar-19 23:32 32.342715 -93.923911 114 35202ft 510kts
10-Mar-19 23:33 32.296685 -93.765091 114 35205ft 510kts
10-Mar-19 23:34 32.250411 -93.606370 114 35215ft 510kts
10-Mar-19 23:35 32.197738 -93.451921 130 35225ft 496kts
10-Mar-19 23:36 32.113716 -93.325315 136 35198ft 491kts
10-Mar-19 23:37 32.030247 -93.197612 136 35195ft 490kts
10-Mar-19 23:38 31.946840 -93.070449 136 35196ft 491kts
10-Mar-19 23:39 31.862679 -92.942719 135 35203ft 493kts
10-Mar-19 23:40 31.778452 -92.815350 135 35203ft 494kts
10-Mar-19 23:41 31.694167 -92.688317 135 35185ft 494kts
10-Mar-19 23:42 31.609693 -92.561395 135 35177ft 494kts
10-Mar-19 23:43 31.525305 -92.435001 135 35188ft 494kts
10-Mar-19 23:44 31.439917 -92.307452 136 35178ft 492kts
10-Mar-19 23:45 31.355515 -92.181654 136 35178ft 493kts
10-Mar-19 23:46 31.270575 -92.055494 136 35180ft 493kts
10-Mar-19 23:47 31.185825 -91.930040 136 35182ft 493kts
10-Mar-19 23:48 31.100762 -91.804526 136 35178ft 493kts
10-Mar-19 23:49 31.015641 -91.679328 135 35185ft 493kts
10-Mar-19 23:50 30.930471 -91.554450 134 35188ft 490kts
10-Mar-19 23:51 30.846658 -91.431968 133 35190ft 489kts
10-Mar-19 23:52 30.761975 -91.308587 134 35173ft 488kts
10-Mar-19 23:53 30.676937 -91.184950 134 35161ft 488kts
10-Mar-19 23:54 30.591882 -91.061707 133 35163ft 489kts
10-Mar-19 23:55 30.506686 -90.938669 133 35165ft 489kts
10-Mar-19 23:56 30.421288 -90.815746 133 35176ft 489kts
10-Mar-19 23:57 30.335643 -90.692874 133 35186ft 490kts
10-Mar-19 23:58 30.250192 -90.570671 133 35189ft 490kts
10-Mar-19 23:59 30.164610 -90.448665 133 35189ft 489kts
11-Mar-19 00:00 30.081303 -90.330278 133 35172ft 490kts
11-Mar-19 00:01 29.995480 -90.208527 133 35171ft 489kts
11-Mar-19 00:02 29.909364 -90.086791 133 35177ft 489kts
11-Mar-19 00:03 29.823071 -89.965963 134 35183ft 488kts
11-Mar-19 00:04 29.735739 -89.846843 134 35184ft 488kts
11-Mar-19 00:05 29.648312 -89.727997 134 35185ft 488kts
11-Mar-19 00:06 29.560444 -89.608922 134 35187ft 489kts
11-Mar-19 00:07 29.472371 -89.489931 134 35189ft 489kts
11-Mar-19 00:08 29.384414 -89.371459 134 35190ft 488kts
11-Mar-19 00:09 29.296406 -89.253153 135 35179ft 488kts
11-Mar-19 00:10 29.208501 -89.135302 135 35181ft 489kts
11-Mar-19 00:11 29.120403 -89.017553 135 35183ft 488kts
11-Mar-19 00:12 29.032276 -88.900110 133 35185ft 483kts
11-Mar-19 00:13 28.945386 -88.784676 132 35186ft 480kts
11-Mar-19 00:14 28.858230 -88.668948 131 35184ft 480kts
11-Mar-19 00:15 28.771834 -88.553102 131 35185ft 480kts
11-Mar-19 00:16 28.685278 -88.437361 131 35191ft 480kts
11-Mar-19 00:17 28.599732 -88.323280 132 35187ft 480kts
11-Mar-19 00:18 28.513114 -88.207986 132 35189ft 480kts
11-Mar-19 00:19 28.426051 -88.092446 132 35191ft 480kts
11-Mar-19 00:20 28.359566 -87.961594 107 35196ft 482kts
11-Mar-19 00:21 28.318894 -87.816077 107 35194ft 482kts
11-Mar-19 00:22 28.276974 -87.671266 107 35195ft 482kts
11-Mar-19 00:23 28.234677 -87.525921 107 35197ft 482kts
11-Mar-19 00:24 28.192468 -87.381587 107 35198ft 482kts
11-Mar-19 00:25 28.149949 -87.236689 108 35191ft 482kts
11-Mar-19 00:26 28.107345 -87.092129 108 35192ft 482kts
11-Mar-19 00:27 28.064699 -86.948131 108 35193ft 482kts
11-Mar-19 00:28 28.021715 -86.803681 108 35199ft 482kts
11-Mar-19 00:29 27.979459 -86.659304 107 35211ft 482kts
11-Mar-19 00:30 27.937631 -86.514970 107 35224ft 482kts
11-Mar-19 00:31 27.895487 -86.370241 107 35233ft 482kts
11-Mar-19 00:32 27.853380 -86.226109 108 35225ft 482kts
11-Mar-19 00:33 27.811003 -86.081677 108 35226ft 482kts
11-Mar-19 00:34 27.768712 -85.938230 108 35228ft 482kts
11-Mar-19 00:35 27.726125 -85.794455 108 35229ft 482kts
11-Mar-19 00:36 27.683469 -85.651114 108 35230ft 482kts
11-Mar-19 00:37 27.640387 -85.506982 108 35232ft 482kts
11-Mar-19 00:38 27.597272 -85.363379 108 35233ft 482kts
11-Mar-19 00:39 27.568815 -85.215232 100 35226ft 481kts
11-Mar-19 00:40 27.543019 -85.066588 99 35228ft 484kts
11-Mar-19 00:41 27.516833 -84.917164 99 35229ft 486kts
11-Mar-19 00:42 27.490370 -84.767367 99 35230ft 486kts
11-Mar-19 00:43 27.463814 -84.618187 99 35232ft 486kts
11-Mar-19 00:44 27.436985 -84.468581 99 35233ft 486kts
11-Mar-19 00:45 27.409976 -84.318963 99 35225ft 486kts
11-Mar-19 00:46 27.382908 -84.169606 99 35227ft 486kts
11-Mar-19 00:47 27.355672 -84.020396 99 35229ft 486kts
11-Mar-19 00:48 27.328253 -83.871230 99 35229ft 486kts
11-Mar-19 00:49 27.300624 -83.721940 99 35228ft 486kts
11-Mar-19 00:50 27.272940 -83.573346 99 35226ft 486kts
11-Mar-19 00:51 27.245016 -83.424465 99 35226ft 486kts
11-Mar-19 00:52 27.216839 -83.274999 100 35218ft 486kts
11-Mar-19 00:53 27.188805 -83.126978 100 35220ft 486kts
11-Mar-19 00:54 27.160406 -82.978073 100 35223ft 486kts
11-Mar-19 00:55 27.129083 -82.830993 108 35231ft 487kts
11-Mar-19 00:56 27.064895 -82.697106 117 35233ft 489kts
11-Mar-19 00:57 26.999930 -82.562944 116 35235ft 488kts
11-Mar-19 00:58 26.935306 -82.429772 116 35237ft 486kts
11-Mar-19 00:59 26.871417 -82.298501 116 35225ft 477kts
11-Mar-19 01:00 26.808144 -82.168721 116 35229ft 478kts
11-Mar-19 01:01 26.740745 -82.039159 123 32920ft 481kts
11-Mar-19 01:02 26.664774 -81.917538 123 29779ft 486kts
11-Mar-19 01:04 26.587753 -81.794536 123 26939ft 473kts
11-Mar-19 01:05 26.514045 -81.677071 123 24546ft 453kts
11-Mar-19 01:06 26.443523 -81.564931 123 22232ft 434kts
11-Mar-19 01:07 26.375691 -81.457353 123 20026ft 414kts
11-Mar-19 01:08 26.310662 -81.354401 122 17809ft 398kts
11-Mar-19 01:09 26.255367 -81.251029 119 15220ft 379kts
11-Mar-19 01:10 26.203799 -81.152359 119 12488ft 362kts
11-Mar-19 01:11 26.153962 -81.058832 120 10424ft 327kts
11-Mar-19 01:12 26.110877 -80.980243 118 9810ft 272kts
11-Mar-19 01:13 26.098985 -80.900731 93 8575ft 256kts
11-Mar-19 01:14 26.094030 -80.826543 93 7449ft 232kts
11-Mar-19 01:15 26.089160 -80.755566 93 6172ft 228kts
11-Mar-19 01:16 26.086877 -80.685840 91 5196ft 224kts
11-Mar-19 01:17 26.084911 -80.617082 91 4296ft 221kts
11-Mar-19 01:18 26.082884 -80.548695 91 3392ft 220kts
11-Mar-19 01:19 26.080821 -80.480951 91 2529ft 216kts
11-Mar-19 01:20 26.078356 -80.413694 92 2517ft 218kts
11-Mar-19 01:21 26.077994 -80.347930 90 2514ft 183kts
11-Mar-19 01:22 26.077604 -80.292573 89 2275ft 175kts
11-Mar-19 01:23 26.077360 -80.242285 90 1419ft 146kts
11-Mar-19 01:24 26.077146 -80.200176 90 670ft 145kts
11-Mar-19 01:24 26.076926 -80.162705 92 23ft 141kts
11-Mar-19 01:26 26.075425 -80.142479 130 11ft 14kts
11-Mar-19 01:27 26.074063 -80.139135 137 11ft 0kts
11-Mar-19 01:27 26.074063 -80.139135 137 11ft 0kts

Navigation Log

Ident Type
Flight plan parsing failed, navigation log unavailable